createdAt,value
2023-04-14T00:00:06.587Z,87.52
2023-04-14T00:01:06.599Z,86.65
2023-04-14T00:02:06.712Z,85.78
2023-04-14T00:03:07.084Z,85.58
2023-04-14T00:04:06.651Z,85.68
2023-04-14T00:05:06.548Z,85.37
2023-04-14T00:06:06.546Z,84.69
2023-04-14T00:07:06.499Z,84.34
2023-04-14T00:08:06.494Z,83.93
2023-04-14T00:09:06.538Z,83.83
2023-04-14T00:10:06.774Z,84.13
2023-04-14T00:11:06.494Z,84.03
2023-04-14T00:12:06.471Z,84.13
2023-04-14T00:13:06.448Z,83.99
2023-04-14T00:14:06.453Z,83.48
2023-04-14T00:15:06.449Z,83.48
2023-04-14T00:16:06.418Z,83.58
2023-04-14T00:17:06.804Z,83.37
2023-04-14T00:18:06.477Z,83.31
2023-04-14T00:19:06.392Z,83.00
2023-04-14T00:20:06.410Z,82.79
2023-04-14T00:21:06.493Z,83.00
2023-04-14T00:22:06.417Z,82.48
2023-04-14T00:23:06.400Z,81.93
2023-04-14T00:24:06.662Z,81.51
2023-04-14T00:25:06.314Z,81.21
2023-04-14T00:26:06.297Z,81.10
2023-04-14T00:27:06.327Z,81.21
2023-04-14T00:28:06.275Z,81.31
2023-04-14T00:29:06.289Z,81.21
2023-04-14T00:30:06.278Z,81.00
2023-04-14T00:31:06.627Z,81.00
2023-04-14T00:32:06.241Z,80.69
2023-04-14T00:33:06.278Z,81.10
2023-04-14T00:34:06.244Z,81.31
2023-04-14T00:35:06.233Z,81.96
2023-04-14T00:36:06.208Z,82.17
2023-04-14T00:37:06.187Z,82.38
2023-04-14T00:38:06.472Z,82.21
2023-04-14T00:39:06.228Z,82.10
2023-04-14T00:40:06.170Z,82.00
2023-04-14T00:41:06.182Z,82.42
2023-04-14T00:42:06.146Z,82.62
2023-04-14T00:43:06.132Z,82.52
2023-04-14T00:44:06.122Z,82.52
2023-04-14T00:45:06.454Z,82.42
2023-04-14T00:46:06.177Z,82.42
2023-04-14T00:47:06.130Z,82.52
2023-04-14T00:48:06.090Z,82.52
2023-04-14T00:49:06.077Z,82.62
2023-04-14T00:50:06.069Z,82.87
2023-04-14T00:51:06.119Z,83.49
2023-04-14T00:52:06.328Z,84.00
2023-04-14T00:53:06.057Z,84.21
2023-04-14T00:54:06.035Z,84.52
2023-04-14T00:55:06.021Z,84.77
2023-04-14T00:56:06.044Z,84.97
2023-04-14T00:57:06.062Z,85.18
2023-04-14T00:58:05.988Z,85.49
2023-04-14T00:59:06.242Z,85.70
2023-04-14T01:00:05.984Z,86.05
2023-04-14T01:01:05.962Z,86.36
2023-04-14T01:02:05.968Z,86.57
2023-04-14T01:03:06.163Z,86.91
2023-04-14T01:04:06.074Z,87.33
2023-04-14T01:05:06.035Z,88.09
2023-04-14T01:06:06.198Z,88.71
2023-04-14T01:07:05.892Z,89.23
2023-04-14T01:08:05.886Z,89.75
2023-04-14T01:09:05.904Z,89.65
2023-04-14T01:10:05.861Z,89.09
2023-04-14T01:11:05.878Z,88.57
2023-04-14T01:12:05.839Z,88.16
2023-04-14T01:13:06.214Z,88.06
2023-04-14T01:14:05.833Z,87.39
2023-04-14T01:15:05.881Z,86.57
2023-04-14T01:16:05.885Z,85.80
2023-04-14T01:17:05.791Z,84.83
2023-04-14T01:18:05.790Z,84.11
2023-04-14T01:19:05.770Z,83.65
2023-04-14T01:20:06.029Z,83.76
2023-04-14T01:21:05.786Z,83.80
2023-04-14T01:22:05.716Z,83.90
2023-04-14T01:23:05.712Z,83.70
2023-04-14T01:24:05.697Z,83.49
2023-04-14T01:25:05.796Z,83.49
2023-04-14T01:26:05.670Z,83.34
2023-04-14T01:27:06.053Z,83.18
2023-04-14T01:28:05.676Z,83.14
2023-04-14T01:29:05.648Z,83.39
2023-04-14T01:30:05.636Z,83.28
2023-04-14T01:31:05.695Z,83.39
2023-04-14T01:32:05.617Z,83.49
2023-04-14T01:33:05.669Z,83.70
2023-04-14T01:34:05.905Z,83.80
2023-04-14T01:35:05.607Z,84.00
2023-04-14T01:36:05.615Z,84.21
2023-04-14T01:37:05.579Z,84.45
2023-04-14T01:38:05.573Z,84.66
2023-04-14T01:39:05.594Z,84.87
2023-04-14T01:40:05.546Z,85.08
2023-04-14T01:41:05.860Z,85.28
2023-04-14T01:42:05.535Z,85.28
2023-04-14T01:43:05.549Z,85.49
2023-04-14T01:44:05.517Z,85.84
2023-04-14T01:45:05.587Z,85.84
2023-04-14T01:46:05.594Z,85.94
2023-04-14T01:47:05.479Z,86.05
2023-04-14T01:48:05.484Z,86.05
2023-04-14T01:49:05.484Z,86.05
2023-04-14T01:50:05.434Z,86.15
2023-04-14T01:51:05.474Z,86.40
2023-04-14T01:52:05.436Z,86.40
2023-04-14T01:53:05.408Z,86.60
2023-04-14T01:54:05.698Z,86.60
2023-04-14T01:55:05.392Z,86.71
2023-04-14T01:56:05.379Z,87.06
2023-04-14T01:57:05.423Z,87.27
2023-04-14T01:58:05.376Z,87.57
2023-04-14T01:59:05.396Z,88.13
2023-04-14T02:00:05.345Z,88.86
2023-04-14T02:01:05.656Z,89.17
2023-04-14T02:02:05.346Z,89.48
2023-04-14T02:03:05.387Z,89.89
2023-04-14T02:04:05.454Z,90.00
2023-04-14T02:05:05.294Z,90.10
2023-04-14T02:06:05.263Z,90.20
2023-04-14T02:07:05.269Z,90.35
2023-04-14T02:08:05.544Z,90.45
2023-04-14T02:09:05.410Z,90.56
2023-04-14T02:10:05.246Z,90.41
2023-04-14T02:11:05.307Z,90.20
2023-04-14T02:12:05.217Z,90.10
2023-04-14T02:13:05.275Z,89.48
2023-04-14T02:14:05.238Z,88.82
2023-04-14T02:15:05.528Z,88.51
2023-04-14T02:16:05.264Z,88.40
2023-04-14T02:17:05.220Z,88.09
2023-04-14T02:18:05.193Z,87.99
2023-04-14T02:19:05.208Z,87.95
2023-04-14T02:20:05.119Z,87.99
2023-04-14T02:21:05.182Z,87.68
2023-04-14T02:22:05.413Z,87.54
2023-04-14T02:23:05.105Z,87.54
2023-04-14T02:24:05.100Z,87.23
2023-04-14T02:25:05.080Z,87.12
2023-04-14T02:26:05.088Z,87.12
2023-04-14T02:27:05.120Z,87.23
2023-04-14T02:28:05.057Z,87.47
2023-04-14T02:29:06.351Z,87.57
2023-04-14T02:30:05.035Z,87.68
2023-04-14T02:31:05.032Z,87.68
2023-04-14T02:32:05.029Z,87.68
2023-04-14T02:33:05.123Z,87.68
2023-04-14T02:34:04.999Z,87.78
2023-04-14T02:35:05.015Z,87.99
2023-04-14T02:36:04.959Z,88.09
2023-04-14T02:37:04.973Z,88.30
2023-04-14T02:38:04.966Z,88.40
2023-04-14T02:39:05.020Z,88.61
2023-04-14T02:40:04.925Z,88.71
2023-04-14T02:41:04.910Z,88.92
2023-04-14T02:42:05.190Z,89.23
2023-04-14T02:43:04.914Z,89.44
2023-04-14T02:44:04.899Z,89.38
2023-04-14T02:45:04.913Z,89.48
2023-04-14T02:46:04.981Z,89.34
2023-04-14T02:47:04.873Z,89.23
2023-04-14T02:48:04.920Z,88.92
2023-04-14T02:49:04.838Z,88.51
2023-04-14T02:50:04.827Z,88.40
2023-04-14T02:51:04.856Z,88.30
2023-04-14T02:52:04.821Z,88.30
2023-04-14T02:53:04.794Z,88.30
2023-04-14T02:54:05.081Z,88.26
2023-04-14T02:55:04.776Z,88.06
2023-04-14T02:56:04.764Z,87.85
2023-04-14T02:57:04.804Z,87.64
2023-04-14T02:58:05.750Z,87.54
2023-04-14T02:59:04.958Z,87.54
2023-04-14T03:00:04.749Z,87.23
2023-04-14T03:01:04.742Z,87.12
2023-04-14T03:02:04.965Z,87.02
2023-04-14T03:03:04.796Z,86.91
2023-04-14T03:04:04.796Z,86.91
2023-04-14T03:05:04.675Z,87.12
2023-04-14T03:06:04.971Z,87.02
2023-04-14T03:07:04.648Z,87.02
2023-04-14T03:08:04.661Z,87.02
2023-04-14T03:09:04.754Z,87.12
2023-04-14T03:10:04.667Z,87.02
2023-04-14T03:11:04.631Z,87.02
2023-04-14T03:12:04.640Z,86.91
2023-04-14T03:13:04.867Z,86.91
2023-04-14T03:14:04.578Z,86.81
2023-04-14T03:15:04.613Z,86.81
2023-04-14T03:16:04.598Z,86.81
2023-04-14T03:17:04.566Z,86.81
2023-04-14T03:18:04.603Z,86.81
2023-04-14T03:19:04.529Z,86.85
2023-04-14T03:20:04.803Z,86.85
2023-04-14T03:21:04.550Z,86.85
2023-04-14T03:22:04.507Z,86.96
2023-04-14T03:23:04.491Z,87.06
2023-04-14T03:24:04.520Z,87.16
2023-04-14T03:25:04.474Z,87.16
2023-04-14T03:26:04.467Z,87.16
2023-04-14T03:27:04.769Z,87.27
2023-04-14T03:28:04.441Z,87.37
2023-04-14T03:29:04.426Z,87.47
2023-04-14T03:30:04.435Z,87.68
2023-04-14T03:31:04.419Z,87.68
2023-04-14T03:32:04.411Z,87.72
2023-04-14T03:33:04.477Z,87.82
2023-04-14T03:34:04.674Z,88.24
2023-04-14T03:35:04.388Z,88.24
2023-04-14T03:36:04.343Z,88.24
2023-04-14T03:37:04.358Z,88.65
2023-04-14T03:38:04.366Z,88.96
2023-04-14T03:39:04.391Z,89.07
2023-04-14T03:40:04.336Z,89.28
2023-04-14T03:41:04.628Z,89.58
2023-04-14T03:42:04.287Z,89.69
2023-04-14T03:43:04.293Z,90.00
2023-04-14T03:44:04.290Z,90.10
2023-04-14T03:45:04.347Z,90.10
2023-04-14T03:46:04.241Z,90.00
2023-04-14T03:47:04.303Z,89.79
2023-04-14T03:48:04.538Z,89.17
2023-04-14T03:49:04.231Z,88.92
2023-04-14T03:50:04.217Z,88.92
2023-04-14T03:51:04.244Z,88.61
2023-04-14T03:52:04.201Z,88.51
2023-04-14T03:53:04.231Z,88.51
2023-04-14T03:54:04.164Z,87.68
2023-04-14T03:55:04.488Z,86.96
2023-04-14T03:56:04.138Z,87.16
2023-04-14T03:57:04.184Z,87.57
2023-04-14T03:58:04.134Z,87.68
2023-04-14T03:59:04.151Z,87.78
2023-04-14T04:00:04.101Z,87.88
2023-04-14T04:01:04.096Z,87.99
2023-04-14T04:02:04.439Z,87.99
2023-04-14T04:03:04.339Z,87.99
2023-04-14T04:04:04.123Z,88.09
2023-04-14T04:05:04.147Z,87.99
2023-04-14T04:06:04.065Z,88.09
2023-04-14T04:07:04.186Z,88.20
2023-04-14T04:08:04.044Z,88.34
2023-04-14T04:09:04.363Z,88.55
2023-04-14T04:10:04.036Z,88.65
2023-04-14T04:11:04.002Z,88.65
2023-04-14T04:12:03.995Z,88.86
2023-04-14T04:13:03.988Z,88.86
2023-04-14T04:14:03.979Z,88.96
2023-04-14T04:15:03.995Z,88.96
2023-04-14T04:16:04.302Z,89.07
2023-04-14T04:17:04.001Z,89.28
2023-04-14T04:18:03.946Z,89.28
2023-04-14T04:19:03.921Z,89.38
2023-04-14T04:20:04.897Z,89.62
2023-04-14T04:21:03.965Z,89.62
2023-04-14T04:22:03.906Z,89.62
2023-04-14T04:23:04.169Z,89.83
2023-04-14T04:24:03.880Z,89.94
2023-04-14T04:25:03.897Z,89.83
2023-04-14T04:26:03.841Z,89.83
2023-04-14T04:27:05.377Z,89.94
2023-04-14T04:28:03.856Z,90.04
2023-04-14T04:29:03.868Z,90.14
2023-04-14T04:30:04.091Z,90.14
2023-04-14T04:31:03.817Z,90.04
2023-04-14T04:32:03.824Z,89.94
2023-04-14T04:33:03.897Z,89.94
2023-04-14T04:34:03.769Z,89.83
2023-04-14T04:35:03.761Z,89.94
2023-04-14T04:36:03.759Z,89.83
2023-04-14T04:37:03.748Z,89.94
2023-04-14T04:38:03.756Z,89.83
2023-04-14T04:39:03.950Z,89.94
2023-04-14T04:40:03.706Z,89.94
2023-04-14T04:41:03.711Z,89.94
2023-04-14T04:42:03.699Z,90.04
2023-04-14T04:43:03.968Z,90.04
2023-04-14T04:44:03.677Z,90.04
2023-04-14T04:45:03.711Z,89.94
2023-04-14T04:46:03.654Z,90.04
2023-04-14T04:47:03.655Z,90.14
2023-04-14T04:48:03.655Z,90.14
2023-04-14T04:49:03.760Z,90.14
2023-04-14T04:50:03.910Z,90.14
2023-04-14T04:51:03.646Z,90.25
2023-04-14T04:52:03.605Z,90.25
2023-04-14T04:53:03.581Z,90.35
2023-04-14T04:54:03.569Z,90.35
2023-04-14T04:55:03.596Z,90.45
2023-04-14T04:56:03.560Z,90.45
2023-04-14T04:57:03.950Z,90.45
2023-04-14T04:58:03.516Z,90.35
2023-04-14T04:59:03.798Z,90.35
2023-04-14T05:00:03.490Z,90.35
2023-04-14T05:01:03.556Z,90.25
2023-04-14T05:02:03.513Z,90.14
2023-04-14T05:03:03.696Z,90.14
2023-04-14T05:04:03.534Z,90.04
2023-04-14T05:05:03.495Z,90.04
2023-04-14T05:06:03.448Z,89.94
2023-04-14T05:07:03.470Z,89.94
2023-04-14T05:08:03.459Z,89.94
2023-04-14T05:09:03.773Z,89.94
2023-04-14T05:10:03.424Z,89.73
2023-04-14T05:11:03.424Z,89.83
2023-04-14T05:12:03.410Z,89.94
2023-04-14T05:13:03.380Z,89.94
2023-04-14T05:14:03.471Z,89.94
2023-04-14T05:15:03.400Z,89.94
2023-04-14T05:16:03.407Z,90.14
2023-04-14T05:17:03.358Z,90.14
2023-04-14T05:18:03.428Z,90.14
2023-04-14T05:19:03.630Z,90.25
2023-04-14T05:20:03.304Z,90.25
2023-04-14T05:21:04.044Z,90.35
2023-04-14T05:22:03.316Z,90.45
2023-04-14T05:23:03.295Z,90.66
2023-04-14T05:24:03.304Z,90.77
2023-04-14T05:25:03.280Z,90.87
2023-04-14T05:26:22.320Z,90.87
2023-04-14T05:27:13.641Z,90.97
2023-04-14T05:28:03.239Z,90.87
2023-04-14T05:29:03.498Z,90.87
2023-04-14T05:30:03.226Z,90.87
2023-04-14T05:31:03.209Z,90.97
2023-04-14T05:32:03.199Z,90.97
2023-04-14T05:33:03.248Z,90.97
2023-04-14T05:34:03.766Z,90.87
2023-04-14T05:35:03.172Z,90.77
2023-04-14T05:36:03.243Z,90.77
2023-04-14T05:37:03.204Z,90.72
2023-04-14T05:38:03.143Z,90.72
2023-04-14T05:39:03.217Z,90.83
2023-04-14T05:40:03.173Z,90.78
2023-04-14T05:41:03.401Z,89.98
2023-04-14T05:42:03.110Z,87.48
2023-04-14T05:43:03.087Z,84.51
2023-04-14T05:44:03.384Z,82.30
2023-04-14T05:45:03.137Z,81.03
2023-04-14T05:46:03.095Z,80.68
2023-04-14T05:47:03.223Z,80.62
2023-04-14T05:48:03.361Z,80.47
2023-04-14T05:49:03.222Z,78.86
2023-04-14T05:50:02.988Z,75.67
2023-04-14T05:51:03.072Z,73.36
2023-04-14T05:52:03.020Z,72.61
2023-04-14T05:53:02.962Z,71.62
2023-04-14T05:54:03.197Z,69.81
2023-04-14T05:55:03.272Z,67.46
2023-04-14T05:56:02.942Z,65.77
2023-04-14T05:57:02.982Z,64.27
2023-04-14T05:58:02.947Z,62.58
2023-04-14T05:59:02.951Z,61.02
2023-04-14T06:00:02.959Z,60.05
2023-04-14T06:01:02.903Z,59.23
2023-04-14T06:02:03.365Z,58.36
2023-04-14T06:03:03.177Z,57.62
2023-04-14T06:04:03.520Z,56.98
2023-04-14T06:05:02.943Z,56.24
2023-04-14T06:06:02.860Z,55.02
2023-04-14T06:07:02.970Z,55.22
2023-04-14T06:08:02.888Z,55.22
2023-04-14T06:09:03.078Z,55.43
2023-04-14T06:10:02.835Z,54.39
2023-04-14T06:11:02.793Z,54.00
2023-04-14T06:12:02.783Z,54.51
2023-04-14T06:13:02.784Z,54.64
2023-04-14T06:14:03.162Z,55.66
2023-04-14T06:15:03.157Z,54.97
2023-04-14T06:16:02.999Z,55.91
2023-04-14T06:17:02.761Z,56.02
2023-04-14T06:18:02.773Z,56.12
2023-04-14T06:19:02.854Z,56.12
2023-04-14T06:20:02.712Z,56.09
2023-04-14T06:21:02.804Z,55.99
2023-04-14T06:22:02.995Z,55.66
2023-04-14T06:23:02.748Z,55.15
2023-04-14T06:24:02.703Z,54.31
2023-04-14T06:25:02.646Z,54.11
2023-04-14T06:26:02.674Z,54.28
2023-04-14T06:27:02.674Z,54.39
2023-04-14T06:28:02.706Z,53.75
2023-04-14T06:29:03.249Z,52.84
2023-04-14T06:30:02.657Z,53.34
2023-04-14T06:31:02.587Z,53.83
2023-04-14T06:32:02.657Z,52.48
2023-04-14T06:33:02.733Z,51.26
2023-04-14T06:34:02.601Z,51.21
2023-04-14T06:35:02.549Z,53.65
2023-04-14T06:36:02.841Z,55.53
2023-04-14T06:37:02.556Z,57.34
2023-04-14T06:38:02.692Z,58.80
2023-04-14T06:39:02.794Z,60.16
2023-04-14T06:40:02.536Z,60.44
2023-04-14T06:41:02.555Z,59.59
2023-04-14T06:42:02.548Z,59.46
2023-04-14T06:43:02.781Z,58.03
2023-04-14T06:44:02.587Z,58.41
2023-04-14T06:45:02.559Z,57.57
2023-04-14T06:46:02.586Z,56.85
2023-04-14T06:47:02.465Z,56.83
2023-04-14T06:48:02.533Z,56.73
2023-04-14T06:49:02.820Z,56.93
2023-04-14T06:50:02.679Z,56.96
2023-04-14T06:51:02.511Z,57.87
2023-04-14T06:52:02.430Z,57.06
2023-04-14T06:53:02.542Z,57.62
2023-04-14T06:54:02.606Z,58.03
2023-04-14T06:55:02.354Z,58.47
2023-04-14T06:56:02.393Z,59.89
2023-04-14T06:57:02.455Z,59.18
2023-04-14T06:58:02.345Z,59.89
2023-04-14T06:59:02.398Z,59.89
2023-04-14T07:00:02.452Z,60.07
2023-04-14T07:01:02.540Z,59.16
2023-04-14T07:02:02.511Z,58.82
2023-04-14T07:03:03.000Z,58.62
2023-04-14T07:04:03.302Z,58.59
2023-04-14T07:05:02.345Z,58.18
2023-04-14T07:06:02.292Z,58.69
2023-04-14T07:07:02.280Z,58.97
2023-04-14T07:08:02.567Z,57.24
2023-04-14T07:09:02.328Z,57.01
2023-04-14T07:10:02.272Z,57.42
2023-04-14T07:11:02.275Z,58.23
2023-04-14T07:12:02.282Z,58.00
2023-04-14T07:13:02.276Z,56.57
2023-04-14T07:14:02.582Z,56.88
2023-04-14T07:15:02.300Z,56.14
2023-04-14T07:16:02.335Z,56.45
2023-04-14T07:17:02.494Z,56.85
2023-04-14T07:18:02.258Z,56.24
2023-04-14T07:19:02.214Z,56.16
2023-04-14T07:20:02.195Z,57.01
2023-04-14T07:21:02.275Z,57.11
2023-04-14T07:22:02.181Z,57.59
2023-04-14T07:23:02.104Z,57.69
2023-04-14T07:24:02.474Z,57.65
2023-04-14T07:25:02.068Z,59.20
2023-04-14T07:26:02.081Z,59.38
2023-04-14T07:27:02.150Z,58.67
2023-04-14T07:28:03.746Z,58.56
2023-04-14T07:29:02.355Z,59.45
2023-04-14T07:30:02.121Z,59.14
2023-04-14T07:31:02.135Z,57.69
2023-04-14T07:32:02.063Z,57.90
2023-04-14T07:33:02.196Z,57.49
2023-04-14T07:34:02.354Z,57.56
2023-04-14T07:35:01.994Z,57.36
2023-04-14T07:36:03.815Z,57.67
2023-04-14T07:37:02.032Z,57.77
2023-04-14T07:38:02.087Z,56.45
2023-04-14T07:39:01.992Z,57.90
2023-04-14T07:40:01.987Z,58.51
2023-04-14T07:41:02.037Z,57.79
2023-04-14T07:42:01.984Z,57.90
2023-04-14T07:43:02.240Z,58.40
2023-04-14T07:44:02.196Z,58.38
2023-04-14T07:45:01.990Z,57.56
2023-04-14T07:46:02.059Z,56.21
2023-04-14T07:47:01.963Z,56.32
2023-04-14T07:48:01.969Z,56.42
2023-04-14T07:49:01.856Z,55.20
2023-04-14T07:50:01.970Z,56.12
2023-04-14T07:51:01.957Z,55.33
2023-04-14T07:52:01.831Z,56.65
2023-04-14T07:53:02.002Z,55.86
2023-04-14T07:54:02.144Z,57.59
2023-04-14T07:55:01.920Z,56.68
2023-04-14T07:56:02.140Z,57.92
2023-04-14T07:57:01.874Z,56.98
2023-04-14T07:58:01.835Z,56.88
2023-04-14T07:59:02.238Z,56.27
2023-04-14T08:00:01.816Z,57.29
2023-04-14T08:01:01.778Z,57.49
2023-04-14T08:02:02.041Z,56.34
2023-04-14T08:03:02.311Z,56.45
2023-04-14T08:04:02.064Z,55.35
2023-04-14T08:05:01.875Z,55.96
2023-04-14T08:06:01.757Z,56.68
2023-04-14T08:07:01.715Z,55.96
2023-04-14T08:08:01.722Z,56.65
2023-04-14T08:09:02.319Z,56.82
2023-04-14T08:10:01.775Z,54.87
2023-04-14T08:11:01.772Z,53.32
2023-04-14T08:12:01.762Z,53.17
2023-04-14T08:13:03.712Z,54.36
2023-04-14T08:14:01.671Z,54.87
2023-04-14T08:15:01.757Z,54.94
2023-04-14T08:16:02.075Z,53.70
2023-04-14T08:17:01.670Z,53.70
2023-04-14T08:18:01.668Z,53.58
2023-04-14T08:19:01.939Z,54.39
2023-04-14T08:20:01.650Z,53.58
2023-04-14T08:21:01.607Z,54.16
2023-04-14T08:22:01.605Z,54.13
2023-04-14T08:23:02.020Z,54.31
2023-04-14T08:24:01.597Z,52.86
2023-04-14T08:25:01.666Z,52.76
2023-04-14T08:26:01.636Z,54.46
2023-04-14T08:27:01.593Z,51.60
2023-04-14T08:28:01.565Z,49.07
2023-04-14T08:29:02.145Z,50.46
2023-04-14T08:30:01.542Z,48.77
2023-04-14T08:31:01.524Z,48.57
2023-04-14T08:32:01.581Z,48.79
2023-04-14T08:33:01.686Z,50.21
2023-04-14T08:34:01.528Z,50.21
2023-04-14T08:35:39.239Z,49.80
2023-04-14T08:36:01.440Z,50.59
2023-04-14T08:37:01.539Z,48.77
2023-04-14T08:38:01.547Z,49.68
2023-04-14T08:39:01.940Z,50.61
2023-04-14T08:40:01.458Z,49.22
2023-04-14T08:41:01.463Z,49.83
2023-04-14T08:42:01.900Z,49.60
2023-04-14T08:43:01.392Z,49.80
2023-04-14T08:44:01.441Z,49.07
2023-04-14T08:45:01.525Z,48.42
2023-04-14T08:46:01.494Z,47.39
2023-04-14T08:47:01.339Z,47.06
2023-04-14T08:48:01.392Z,44.48
2023-04-14T08:49:01.475Z,45.51
2023-04-14T08:50:01.354Z,46.42
2023-04-14T08:51:01.480Z,46.70
2023-04-14T08:52:01.388Z,47.51
2023-04-14T08:53:01.304Z,45.89
2023-04-14T08:54:02.324Z,46.50
2023-04-14T08:55:01.334Z,48.14
2023-04-14T08:56:02.111Z,49.05
2023-04-14T08:57:01.374Z,47.71
2023-04-14T08:58:01.246Z,48.34
2023-04-14T08:59:01.230Z,49.25
2023-04-14T09:00:01.248Z,48.03
2023-04-14T09:01:01.287Z,49.25
2023-04-14T09:02:01.358Z,48.32
2023-04-14T09:03:01.601Z,47.94
2023-04-14T09:04:01.801Z,48.24
2023-04-14T09:05:01.282Z,47.91
2023-04-14T09:06:01.234Z,48.11
2023-04-14T09:07:01.274Z,48.02
2023-04-14T09:08:01.212Z,47.41
2023-04-14T09:09:01.279Z,48.62
2023-04-14T09:10:01.152Z,47.83
2023-04-14T09:11:01.146Z,48.02
2023-04-14T09:12:01.124Z,47.20
2023-04-14T09:13:01.508Z,47.23
2023-04-14T09:14:01.435Z,47.45
2023-04-14T09:15:01.141Z,48.49
2023-04-14T09:16:01.131Z,48.26
2023-04-14T09:17:01.090Z,48.49
2023-04-14T09:18:01.169Z,49.10
2023-04-14T09:19:07.368Z,48.39
2023-04-14T09:20:37.593Z,49.07
2023-04-14T09:21:50.108Z,48.87
2023-04-14T09:22:01.036Z,49.15
2023-04-14T09:23:01.055Z,47.41
2023-04-14T09:24:01.267Z,45.97
2023-04-14T09:25:00.944Z,46.58
2023-04-14T09:26:01.305Z,46.15
2023-04-14T09:27:01.043Z,44.88
2023-04-14T09:28:00.920Z,45.94
2023-04-14T09:29:01.328Z,47.42
2023-04-14T09:30:00.920Z,49.57
2023-04-14T09:31:00.966Z,49.37
2023-04-14T09:32:00.998Z,50.99
2023-04-14T09:33:01.302Z,51.47
2023-04-14T09:34:01.172Z,49.70
2023-04-14T09:35:00.896Z,48.77
2023-04-14T09:36:00.887Z,47.31
2023-04-14T09:37:00.851Z,46.83
2023-04-14T09:38:00.886Z,47.80
2023-04-14T09:39:00.913Z,47.64
2023-04-14T09:40:01.787Z,48.76
2023-04-14T09:41:00.797Z,48.83
2023-04-14T09:42:00.773Z,47.27
2023-04-14T09:43:00.810Z,46.92
2023-04-14T09:44:01.193Z,46.07
2023-04-14T09:45:00.839Z,46.05
2023-04-14T09:46:00.819Z,46.13
2023-04-14T09:47:01.078Z,46.31
2023-04-14T09:48:00.751Z,44.87
2023-04-14T09:49:00.729Z,43.06
2023-04-14T09:50:00.904Z,44.19
2023-04-14T09:51:00.969Z,44.07
2023-04-14T09:52:00.854Z,44.35
2023-04-14T09:53:00.889Z,43.44
2023-04-14T09:54:01.231Z,43.74
2023-04-14T09:55:00.677Z,43.04
2023-04-14T09:56:00.685Z,43.57
2023-04-14T09:57:00.732Z,43.97
2023-04-14T09:58:00.654Z,46.09
2023-04-14T09:59:01.157Z,43.97
2023-04-14T10:00:01.090Z,44.31
2023-04-14T10:01:00.667Z,44.71
2023-04-14T10:02:00.705Z,44.64
2023-04-14T10:03:00.769Z,46.73
2023-04-14T10:04:00.612Z,46.39
2023-04-14T10:05:00.756Z,44.55
2023-04-14T10:06:00.543Z,44.15
2023-04-14T10:07:00.567Z,45.34
2023-04-14T10:08:00.627Z,43.51
2023-04-14T10:09:01.255Z,42.61
2023-04-14T10:10:00.561Z,43.37
2023-04-14T10:11:00.577Z,43.57
2023-04-14T10:12:00.878Z,43.69
2023-04-14T10:13:00.557Z,42.86
2023-04-14T10:14:00.579Z,44.49
2023-04-14T10:15:00.586Z,43.99
2023-04-14T10:16:00.557Z,42.96
2023-04-14T10:17:00.574Z,41.77
2023-04-14T10:18:00.455Z,41.77
2023-04-14T10:19:00.750Z,42.32
2023-04-14T10:20:00.392Z,43.65
2023-04-14T10:21:00.459Z,42.41
2023-04-14T10:22:00.425Z,43.83
2023-04-14T10:23:00.445Z,44.92
2023-04-14T10:24:00.684Z,44.58
2023-04-14T10:25:00.426Z,42.01
2023-04-14T10:26:00.457Z,41.30
2023-04-14T10:27:00.406Z,40.28
2023-04-14T10:28:00.373Z,39.55
2023-04-14T10:29:00.671Z,40.92
2023-04-14T10:30:00.410Z,39.29
2023-04-14T10:31:00.593Z,37.66
2023-04-14T10:32:00.552Z,37.88
2023-04-14T10:33:00.417Z,39.13
2023-04-14T10:34:00.339Z,39.83
2023-04-14T10:35:00.333Z,40.82
2023-04-14T10:36:00.845Z,40.91
2023-04-14T10:37:00.954Z,39.58
2023-04-14T10:38:00.504Z,39.07
2023-04-14T10:39:00.632Z,39.17
2023-04-14T10:40:00.233Z,39.72
2023-04-14T10:41:00.248Z,40.96
2023-04-14T10:42:00.250Z,40.94
2023-04-14T10:43:00.318Z,40.42
2023-04-14T10:44:00.217Z,41.00
2023-04-14T10:45:00.278Z,40.20
2023-04-14T10:46:00.189Z,40.72
2023-04-14T10:47:00.285Z,41.45
2023-04-14T10:48:00.352Z,41.95
2023-04-14T10:49:00.415Z,41.25
2023-04-14T10:50:00.199Z,41.93
2023-04-14T10:51:00.459Z,41.35
2023-04-14T10:52:00.055Z,41.25
2023-04-14T10:53:00.117Z,42.41
2023-04-14T10:54:00.084Z,42.19
2023-04-14T10:55:00.128Z,40.97
2023-04-14T10:56:00.104Z,41.67
2023-04-14T10:57:00.034Z,41.47
2023-04-14T10:58:00.345Z,40.62
2023-04-14T10:59:00.071Z,39.23
2023-04-14T11:00:00.029Z,40.42
2023-04-14T11:00:59.987Z,41.87
2023-04-14T11:02:00.068Z,41.63
2023-04-14T11:03:00.108Z,41.55
2023-04-14T11:04:00.056Z,43.08
2023-04-14T11:05:00.225Z,43.28
2023-04-14T11:06:00.781Z,42.55
2023-04-14T11:06:59.948Z,43.48
2023-04-14T11:08:02.611Z,42.58
2023-04-14T11:09:00.157Z,42.78
2023-04-14T11:09:59.904Z,42.88
2023-04-14T11:10:59.866Z,43.38
2023-04-14T11:12:00.144Z,43.30
2023-04-14T11:12:59.911Z,42.92
2023-04-14T11:13:59.903Z,43.32
2023-04-14T11:14:59.962Z,43.37
2023-04-14T11:15:59.831Z,44.44
2023-04-14T11:17:03.671Z,45.07
2023-04-14T11:17:59.854Z,46.20
2023-04-14T11:19:00.201Z,47.16
2023-04-14T11:19:59.846Z,47.97
2023-04-14T11:20:59.970Z,46.75
2023-04-14T11:21:59.790Z,47.08
2023-04-14T11:22:59.817Z,48.11
2023-04-14T11:23:59.808Z,48.22
2023-04-14T11:24:59.761Z,47.89
2023-04-14T11:25:59.709Z,46.59
2023-04-14T11:26:59.775Z,45.66
2023-04-14T11:27:59.688Z,47.14
2023-04-14T11:28:59.944Z,47.02
2023-04-14T11:29:59.676Z,44.92
2023-04-14T11:30:59.758Z,45.57
2023-04-14T11:32:00.077Z,45.63
2023-04-14T11:32:59.842Z,44.78
2023-04-14T11:33:59.681Z,43.65
2023-04-14T11:34:59.647Z,44.68
2023-04-14T11:35:59.631Z,44.92
2023-04-14T11:36:59.641Z,46.06
2023-04-14T11:37:59.618Z,45.35
2023-04-14T11:38:59.844Z,45.00
2023-04-14T11:39:59.580Z,44.35
2023-04-14T11:40:59.664Z,44.71
2023-04-14T11:41:59.639Z,41.95
2023-04-14T11:42:59.584Z,40.42
2023-04-14T11:43:59.554Z,40.46
2023-04-14T11:44:59.645Z,40.98
2023-04-14T11:45:59.583Z,41.71
2023-04-14T11:46:59.523Z,41.79
2023-04-14T11:47:59.607Z,42.25
2023-04-14T11:48:59.771Z,41.47
2023-04-14T11:49:59.774Z,42.09
2023-04-14T11:50:59.517Z,43.32
2023-04-14T11:51:59.596Z,43.99
2023-04-14T11:52:59.473Z,44.84
2023-04-14T11:53:59.411Z,46.20
2023-04-14T11:54:59.470Z,46.94
2023-04-14T11:55:59.549Z,47.56
2023-04-14T11:56:59.806Z,47.77
2023-04-14T11:57:59.453Z,48.38
2023-04-14T11:58:59.817Z,47.35
2023-04-14T11:59:59.394Z,46.83
2023-04-14T12:00:59.460Z,45.99
2023-04-14T12:01:59.395Z,45.18
2023-04-14T12:02:59.677Z,44.68
2023-04-14T12:03:59.746Z,44.86
2023-04-14T12:04:59.402Z,45.42
2023-04-14T12:05:59.321Z,45.32
2023-04-14T12:06:59.361Z,45.04
2023-04-14T12:07:59.309Z,43.75
2023-04-14T12:08:59.633Z,42.84
2023-04-14T12:09:59.404Z,42.86
2023-04-14T12:11:00.405Z,43.51
2023-04-14T12:11:59.231Z,41.83
2023-04-14T12:12:59.240Z,40.66
2023-04-14T12:13:59.277Z,39.39
2023-04-14T12:14:59.273Z,38.33
2023-04-14T12:15:59.305Z,37.67
2023-04-14T12:17:59.548Z,37.37
2023-04-14T12:19:59.151Z,36.57
2023-04-14T12:20:59.207Z,37.21
2023-04-14T12:21:59.194Z,38.48
2023-04-14T12:25:59.116Z,40.23
2023-04-14T12:28:59.098Z,38.43
2023-04-14T12:29:59.118Z,38.83
2023-04-14T12:30:59.159Z,38.81
2023-04-14T12:31:59.405Z,37.99
2023-04-14T12:32:59.194Z,39.66
2023-04-14T12:33:59.040Z,38.36
2023-04-14T12:34:59.072Z,36.58
2023-04-14T12:35:59.079Z,37.10
2023-04-14T12:36:59.065Z,37.30
2023-04-14T12:38:59.684Z,38.71
2023-04-14T12:40:58.969Z,33.56
2023-04-14T12:41:58.960Z,35.41
2023-04-14T12:42:58.926Z,35.03
2023-04-14T12:43:58.944Z,35.46
2023-04-14T12:44:59.051Z,36.71
2023-04-14T12:45:59.217Z,37.34
2023-04-14T12:46:58.907Z,37.74
2023-04-14T12:47:59.044Z,38.46
2023-04-14T12:48:59.016Z,38.46
2023-04-14T12:49:58.811Z,38.06
2023-04-14T12:50:58.891Z,37.84
2023-04-14T12:51:58.844Z,37.96
2023-04-14T12:52:58.891Z,38.39
2023-04-14T12:53:58.820Z,39.01
2023-04-14T12:54:58.786Z,39.62
2023-04-14T12:55:58.768Z,39.72
2023-04-14T12:56:58.930Z,39.70
2023-04-14T12:57:58.787Z,39.37
2023-04-14T12:58:58.831Z,40.59
2023-04-14T12:59:58.777Z,39.66
2023-04-14T13:00:58.812Z,39.97